sensor_id;sensor_type;location;lat;lon;timestamp;P1;durP1;ratioP1;P2;durP2;ratioP2
36009;SDS011;22076;52.182;5.404;2023-04-24T00:00:25;2.08;;;0.88;;
36009;SDS011;22076;52.182;5.404;2023-04-24T00:02:52;1.77;;;0.90;;
36009;SDS011;22076;52.182;5.404;2023-04-24T00:05:22;1.73;;;0.90;;
36009;SDS011;22076;52.182;5.404;2023-04-24T00:07:48;0.93;;;0.63;;
36009;SDS011;22076;52.182;5.404;2023-04-24T00:10:17;1.70;;;0.90;;
36009;SDS011;22076;52.182;5.404;2023-04-24T00:12:45;0.90;;;0.70;;
36009;SDS011;22076;52.182;5.404;2023-04-24T00:15:12;0.52;;;0.52;;
36009;SDS011;22076;52.182;5.404;2023-04-24T00:17:38;0.50;;;0.47;;
36009;SDS011;22076;52.182;5.404;2023-04-24T00:20:05;1.90;;;0.95;;
36009;SDS011;22076;52.182;5.404;2023-04-24T00:22:32;0.60;;;0.40;;
36009;SDS011;22076;52.182;5.404;2023-04-24T00:24:59;2.67;;;0.63;;
36009;SDS011;22076;52.182;5.404;2023-04-24T00:27:26;1.02;;;0.70;;
36009;SDS011;22076;52.182;5.404;2023-04-24T00:29:54;0.60;;;0.50;;
36009;SDS011;22076;52.182;5.404;2023-04-24T00:32:20;0.65;;;0.50;;
36009;SDS011;22076;52.182;5.404;2023-04-24T00:34:47;0.75;;;0.52;;
36009;SDS011;22076;52.182;5.404;2023-04-24T00:37:13;0.77;;;0.52;;
36009;SDS011;22076;52.182;5.404;2023-04-24T00:39:40;1.00;;;0.73;;
36009;SDS011;22076;52.182;5.404;2023-04-24T00:42:06;0.63;;;0.52;;
36009;SDS011;22076;52.182;5.404;2023-04-24T00:44:33;2.03;;;0.55;;
36009;SDS011;22076;52.182;5.404;2023-04-24T00:47:01;0.82;;;0.50;;
36009;SDS011;22076;52.182;5.404;2023-04-24T00:49:27;0.60;;;0.40;;
36009;SDS011;22076;52.182;5.404;2023-04-24T00:51:54;2.10;;;0.50;;
36009;SDS011;22076;52.182;5.404;2023-04-24T00:54:21;1.08;;;0.80;;
36009;SDS011;22076;52.182;5.404;2023-04-24T00:56:48;1.27;;;0.63;;
36009;SDS011;22076;52.182;5.404;2023-04-24T00:59:16;0.60;;;0.50;;
36009;SDS011;22076;52.182;5.404;2023-04-24T01:01:43;0.98;;;0.60;;
36009;SDS011;22076;52.182;5.404;2023-04-24T01:04:11;2.15;;;0.75;;
36009;SDS011;22076;52.182;5.404;2023-04-24T01:06:39;1.52;;;0.60;;
36009;SDS011;22076;52.182;5.404;2023-04-24T01:09:06;1.25;;;0.60;;
36009;SDS011;22076;52.182;5.404;2023-04-24T01:11:33;0.68;;;0.52;;
36009;SDS011;22076;52.182;5.404;2023-04-24T01:14:00;0.93;;;0.40;;
36009;SDS011;22076;52.182;5.404;2023-04-24T01:16:28;0.80;;;0.57;;
36009;SDS011;22076;52.182;5.404;2023-04-24T01:18:55;1.73;;;0.70;;
36009;SDS011;22076;52.182;5.404;2023-04-24T01:21:23;0.98;;;0.73;;
36009;SDS011;22076;52.182;5.404;2023-04-24T01:23:51;0.90;;;0.70;;
36009;SDS011;22076;52.182;5.404;2023-04-24T01:26:18;0.95;;;0.70;;
36009;SDS011;22076;52.182;5.404;2023-04-24T01:28:45;1.45;;;1.13;;
36009;SDS011;22076;52.182;5.404;2023-04-24T01:31:12;1.05;;;0.80;;
36009;SDS011;22076;52.182;5.404;2023-04-24T01:33:38;1.30;;;0.88;;
36009;SDS011;22076;52.182;5.404;2023-04-24T01:36:05;1.42;;;1.13;;
36009;SDS011;22076;52.182;5.404;2023-04-24T01:38:32;2.08;;;1.63;;
36009;SDS011;22076;52.182;5.404;2023-04-24T01:41:00;1.63;;;1.08;;
36009;SDS011;22076;52.182;5.404;2023-04-24T01:43:27;1.38;;;1.17;;
36009;SDS011;22076;52.182;5.404;2023-04-24T01:45:53;1.65;;;1.17;;
36009;SDS011;22076;52.182;5.404;2023-04-24T01:48:20;1.55;;;1.20;;
36009;SDS011;22076;52.182;5.404;2023-04-24T01:50:46;4.00;;;1.63;;
36009;SDS011;22076;52.182;5.404;2023-04-24T01:53:13;4.60;;;1.88;;
36009;SDS011;22076;52.182;5.404;2023-04-24T01:55:40;2.30;;;1.83;;
36009;SDS011;22076;52.182;5.404;2023-04-24T01:58:07;3.47;;;2.10;;
36009;SDS011;22076;52.182;5.404;2023-04-24T02:00:34;3.78;;;1.85;;
36009;SDS011;22076;52.182;5.404;2023-04-24T02:03:00;2.05;;;1.65;;
36009;SDS011;22076;52.182;5.404;2023-04-24T02:05:27;3.97;;;2.40;;
36009;SDS011;22076;52.182;5.404;2023-04-24T02:07:54;3.58;;;2.70;;
36009;SDS011;22076;52.182;5.404;2023-04-24T02:10:20;2.88;;;1.48;;
36009;SDS011;22076;52.182;5.404;2023-04-24T02:12:47;2.92;;;2.00;;
36009;SDS011;22076;52.182;5.404;2023-04-24T02:15:15;3.38;;;2.55;;
36009;SDS011;22076;52.182;5.404;2023-04-24T02:17:42;4.35;;;3.20;;
36009;SDS011;22076;52.182;5.404;2023-04-24T02:20:09;2.92;;;2.08;;
36009;SDS011;22076;52.182;5.404;2023-04-24T02:22:36;4.32;;;2.90;;
36009;SDS011;22076;52.182;5.404;2023-04-24T02:25:03;3.50;;;2.25;;
36009;SDS011;22076;52.182;5.404;2023-04-24T02:27:30;4.00;;;2.92;;
36009;SDS011;22076;52.182;5.404;2023-04-24T02:29:56;2.78;;;2.08;;
36009;SDS011;22076;52.182;5.404;2023-04-24T02:32:24;5.13;;;4.38;;
36009;SDS011;22076;52.182;5.404;2023-04-24T02:34:51;4.85;;;2.92;;
36009;SDS011;22076;52.182;5.404;2023-04-24T02:37:17;4.03;;;2.65;;
36009;SDS011;22076;52.182;5.404;2023-04-24T02:39:44;2.30;;;1.92;;
36009;SDS011;22076;52.182;5.404;2023-04-24T02:42:10;4.30;;;3.45;;
36009;SDS011;22076;52.182;5.404;2023-04-24T02:44:37;3.58;;;2.70;;
36009;SDS011;22076;52.182;5.404;2023-04-24T02:47:03;3.50;;;2.47;;
36009;SDS011;22076;52.182;5.404;2023-04-24T02:49:31;2.95;;;2.30;;
36009;SDS011;22076;52.182;5.404;2023-04-24T02:51:58;3.03;;;2.65;;
36009;SDS011;22076;52.182;5.404;2023-04-24T02:54:24;5.22;;;2.13;;
36009;SDS011;22076;52.182;5.404;2023-04-24T02:56:50;3.63;;;2.72;;
36009;SDS011;22076;52.182;5.404;2023-04-24T02:59:17;3.67;;;2.65;;
36009;SDS011;22076;52.182;5.404;2023-04-24T03:01:43;5.32;;;2.35;;
36009;SDS011;22076;52.182;5.404;2023-04-24T03:04:10;2.38;;;1.92;;
36009;SDS011;22076;52.182;5.404;2023-04-24T03:06:38;3.58;;;2.08;;
36009;SDS011;22076;52.182;5.404;2023-04-24T03:09:05;2.85;;;1.35;;
36009;SDS011;22076;52.182;5.404;2023-04-24T03:11:31;2.45;;;1.20;;
36009;SDS011;22076;52.182;5.404;2023-04-24T03:13:58;1.65;;;1.40;;
36009;SDS011;22076;52.182;5.404;2023-04-24T03:16:24;1.92;;;1.10;;
36009;SDS011;22076;52.182;5.404;2023-04-24T03:18:51;1.33;;;0.90;;
36009;SDS011;22076;52.182;5.404;2023-04-24T03:21:17;1.80;;;1.40;;
36009;SDS011;22076;52.182;5.404;2023-04-24T03:23:45;1.98;;;1.30;;
36009;SDS011;22076;52.182;5.404;2023-04-24T03:26:11;3.13;;;1.20;;
36009;SDS011;22076;52.182;5.404;2023-04-24T03:28:38;1.90;;;0.93;;
36009;SDS011;22076;52.182;5.404;2023-04-24T03:31:04;3.42;;;0.90;;
36009;SDS011;22076;52.182;5.404;2023-04-24T03:33:31;1.25;;;0.88;;
36009;SDS011;22076;52.182;5.404;2023-04-24T03:35:57;1.50;;;1.10;;
36009;SDS011;22076;52.182;5.404;2023-04-24T03:38:24;2.25;;;0.80;;
36009;SDS011;22076;52.182;5.404;2023-04-24T03:40:52;1.10;;;0.77;;
36009;SDS011;22076;52.182;5.404;2023-04-24T03:43:18;0.80;;;0.75;;
36009;SDS011;22076;52.182;5.404;2023-04-24T03:45:45;1.40;;;0.88;;
36009;SDS011;22076;52.182;5.404;2023-04-24T03:48:12;4.30;;;0.88;;
36009;SDS011;22076;52.182;5.404;2023-04-24T03:50:38;3.00;;;1.58;;
36009;SDS011;22076;52.182;5.404;2023-04-24T03:53:05;1.65;;;1.10;;
36009;SDS011;22076;52.182;5.404;2023-04-24T03:55:31;1.55;;;0.90;;
36009;SDS011;22076;52.182;5.404;2023-04-24T03:57:59;1.33;;;1.10;;
36009;SDS011;22076;52.182;5.404;2023-04-24T04:00:25;2.25;;;1.35;;
36009;SDS011;22076;52.182;5.404;2023-04-24T04:02:52;2.90;;;1.10;;
36009;SDS011;22076;52.182;5.404;2023-04-24T04:05:19;2.25;;;1.00;;
36009;SDS011;22076;52.182;5.404;2023-04-24T04:07:45;1.75;;;0.80;;
36009;SDS011;22076;52.182;5.404;2023-04-24T04:10:12;1.48;;;1.13;;
36009;SDS011;22076;52.182;5.404;2023-04-24T04:12:39;1.67;;;1.17;;
36009;SDS011;22076;52.182;5.404;2023-04-24T04:15:07;1.77;;;1.30;;
36009;SDS011;22076;52.182;5.404;2023-04-24T04:17:34;1.13;;;0.90;;
36009;SDS011;22076;52.182;5.404;2023-04-24T04:20:00;1.13;;;0.90;;
36009;SDS011;22076;52.182;5.404;2023-04-24T04:22:30;1.40;;;1.20;;
36009;SDS011;22076;52.182;5.404;2023-04-24T04:24:57;1.35;;;0.77;;
36009;SDS011;22076;52.182;5.404;2023-04-24T04:27:24;1.35;;;0.80;;
36009;SDS011;22076;52.182;5.404;2023-04-24T04:29:51;2.67;;;1.23;;
36009;SDS011;22076;52.182;5.404;2023-04-24T04:32:20;3.50;;;1.25;;
36009;SDS011;22076;52.182;5.404;2023-04-24T04:34:46;0.90;;;0.80;;
36009;SDS011;22076;52.182;5.404;2023-04-24T04:37:14;1.23;;;1.00;;
36009;SDS011;22076;52.182;5.404;2023-04-24T04:39:41;1.20;;;0.80;;
36009;SDS011;22076;52.182;5.404;2023-04-24T04:42:07;1.35;;;1.00;;
36009;SDS011;22076;52.182;5.404;2023-04-24T04:44:34;2.35;;;0.98;;
36009;SDS011;22076;52.182;5.404;2023-04-24T04:47:01;2.83;;;1.13;;
36009;SDS011;22076;52.182;5.404;2023-04-24T04:49:32;2.70;;;1.23;;
36009;SDS011;22076;52.182;5.404;2023-04-24T04:51:59;1.50;;;1.10;;
36009;SDS011;22076;52.182;5.404;2023-04-24T04:54:25;1.42;;;0.98;;
36009;SDS011;22076;52.182;5.404;2023-04-24T04:56:52;1.98;;;0.82;;
36009;SDS011;22076;52.182;5.404;2023-04-24T04:59:18;2.58;;;1.25;;
36009;SDS011;22076;52.182;5.404;2023-04-24T05:01:45;3.80;;;1.60;;
36009;SDS011;22076;52.182;5.404;2023-04-24T05:04:11;2.33;;;1.13;;
36009;SDS011;22076;52.182;5.404;2023-04-24T05:06:39;2.40;;;1.25;;
36009;SDS011;22076;52.182;5.404;2023-04-24T05:09:06;2.70;;;1.58;;
36009;SDS011;22076;52.182;5.404;2023-04-24T05:11:32;2.03;;;1.50;;
36009;SDS011;22076;52.182;5.404;2023-04-24T05:13:59;1.85;;;1.10;;
36009;SDS011;22076;52.182;5.404;2023-04-24T05:16:26;2.10;;;1.70;;
36009;SDS011;22076;52.182;5.404;2023-04-24T05:18:52;2.15;;;1.25;;
36009;SDS011;22076;52.182;5.404;2023-04-24T05:21:19;2.63;;;1.98;;
36009;SDS011;22076;52.182;5.404;2023-04-24T05:23:47;4.22;;;1.95;;
36009;SDS011;22076;52.182;5.404;2023-04-24T05:26:13;3.75;;;1.65;;
36009;SDS011;22076;52.182;5.404;2023-04-24T05:28:40;4.57;;;2.53;;
36009;SDS011;22076;52.182;5.404;2023-04-24T05:31:07;3.88;;;2.63;;
36009;SDS011;22076;52.182;5.404;2023-04-24T05:33:34;6.47;;;3.85;;
36009;SDS011;22076;52.182;5.404;2023-04-24T05:36:01;2.97;;;1.98;;
36009;SDS011;22076;52.182;5.404;2023-04-24T05:38:27;4.05;;;2.83;;
36009;SDS011;22076;52.182;5.404;2023-04-24T05:40:55;5.72;;;3.28;;
36009;SDS011;22076;52.182;5.404;2023-04-24T05:43:22;5.45;;;2.85;;
36009;SDS011;22076;52.182;5.404;2023-04-24T05:45:48;4.78;;;3.08;;
36009;SDS011;22076;52.182;5.404;2023-04-24T05:48:15;7.20;;;2.30;;
36009;SDS011;22076;52.182;5.404;2023-04-24T05:50:43;4.07;;;2.10;;
36009;SDS011;22076;52.182;5.404;2023-04-24T05:53:10;3.47;;;2.25;;
36009;SDS011;22076;52.182;5.404;2023-04-24T05:55:36;9.93;;;2.50;;
36009;SDS011;22076;52.182;5.404;2023-04-24T05:58:04;7.30;;;2.97;;
36009;SDS011;22076;52.182;5.404;2023-04-24T06:00:31;7.85;;;2.55;;
36009;SDS011;22076;52.182;5.404;2023-04-24T06:02:59;4.75;;;2.53;;
36009;SDS011;22076;52.182;5.404;2023-04-24T06:05:25;4.88;;;1.95;;
36009;SDS011;22076;52.182;5.404;2023-04-24T06:07:52;2.70;;;1.98;;
36009;SDS011;22076;52.182;5.404;2023-04-24T06:10:19;3.38;;;2.00;;
36009;SDS011;22076;52.182;5.404;2023-04-24T06:12:45;4.70;;;1.67;;
36009;SDS011;22076;52.182;5.404;2023-04-24T06:15:13;3.15;;;1.35;;
36009;SDS011;22076;52.182;5.404;2023-04-24T06:17:40;2.67;;;1.65;;
36009;SDS011;22076;52.182;5.404;2023-04-24T06:20:07;2.47;;;1.60;;
36009;SDS011;22076;52.182;5.404;2023-04-24T06:22:33;1.55;;;1.17;;
36009;SDS011;22076;52.182;5.404;2023-04-24T06:25:00;6.32;;;1.10;;
36009;SDS011;22076;52.182;5.404;2023-04-24T06:27:27;3.45;;;1.13;;
36009;SDS011;22076;52.182;5.404;2023-04-24T06:29:53;1.92;;;1.05;;
36009;SDS011;22076;52.182;5.404;2023-04-24T06:32:22;1.85;;;1.20;;
36009;SDS011;22076;52.182;5.404;2023-04-24T06:34:49;3.60;;;1.30;;
36009;SDS011;22076;52.182;5.404;2023-04-24T06:37:17;2.47;;;1.17;;
36009;SDS011;22076;52.182;5.404;2023-04-24T06:39:45;6.95;;;4.22;;
36009;SDS011;22076;52.182;5.404;2023-04-24T06:42:11;9.45;;;5.15;;
36009;SDS011;22076;52.182;5.404;2023-04-24T06:44:38;12.73;;;5.40;;
36009;SDS011;22076;52.182;5.404;2023-04-24T06:47:06;7.18;;;4.95;;
36009;SDS011;22076;52.182;5.404;2023-04-24T06:49:35;10.38;;;5.88;;
36009;SDS011;22076;52.182;5.404;2023-04-24T06:52:01;15.55;;;8.23;;
36009;SDS011;22076;52.182;5.404;2023-04-24T06:54:28;9.73;;;5.95;;
36009;SDS011;22076;52.182;5.404;2023-04-24T06:56:54;12.00;;;5.65;;
36009;SDS011;22076;52.182;5.404;2023-04-24T06:59:22;15.20;;;7.43;;
36009;SDS011;22076;52.182;5.404;2023-04-24T07:01:48;11.40;;;6.03;;
36009;SDS011;22076;52.182;5.404;2023-04-24T07:04:16;11.70;;;6.20;;
36009;SDS011;22076;52.182;5.404;2023-04-24T07:06:44;11.35;;;6.38;;
36009;SDS011;22076;52.182;5.404;2023-04-24T07:09:11;9.50;;;6.00;;
36009;SDS011;22076;52.182;5.404;2023-04-24T07:11:38;9.13;;;5.97;;
36009;SDS011;22076;52.182;5.404;2023-04-24T07:14:05;11.00;;;5.60;;
36009;SDS011;22076;52.182;5.404;2023-04-24T07:16:32;13.75;;;7.40;;
36009;SDS011;22076;52.182;5.404;2023-04-24T07:18:58;14.57;;;6.32;;
36009;SDS011;22076;52.182;5.404;2023-04-24T07:21:25;13.18;;;7.47;;
36009;SDS011;22076;52.182;5.404;2023-04-24T07:23:56;14.55;;;7.10;;
36009;SDS011;22076;52.182;5.404;2023-04-24T07:26:23;15.43;;;6.55;;
36009;SDS011;22076;52.182;5.404;2023-04-24T07:28:49;22.77;;;8.27;;
36009;SDS011;22076;52.182;5.404;2023-04-24T07:31:16;10.02;;;5.90;;
36009;SDS011;22076;52.182;5.404;2023-04-24T07:33:43;18.30;;;7.03;;
36009;SDS011;22076;52.182;5.404;2023-04-24T07:36:10;17.63;;;7.50;;
36009;SDS011;22076;52.182;5.404;2023-04-24T07:38:41;15.52;;;6.70;;
36009;SDS011;22076;52.182;5.404;2023-04-24T07:41:09;14.88;;;6.80;;
36009;SDS011;22076;52.182;5.404;2023-04-24T07:43:36;17.55;;;8.60;;
36009;SDS011;22076;52.182;5.404;2023-04-24T07:46:02;17.63;;;7.30;;
36009;SDS011;22076;52.182;5.404;2023-04-24T07:48:29;18.85;;;7.90;;
36009;SDS011;22076;52.182;5.404;2023-04-24T07:50:56;15.57;;;6.30;;
36009;SDS011;22076;52.182;5.404;2023-04-24T07:53:22;16.30;;;7.30;;
36009;SDS011;22076;52.182;5.404;2023-04-24T07:55:49;16.40;;;7.35;;
36009;SDS011;22076;52.182;5.404;2023-04-24T07:58:17;14.07;;;7.38;;
36009;SDS011;22076;52.182;5.404;2023-04-24T08:00:43;13.10;;;7.15;;
36009;SDS011;22076;52.182;5.404;2023-04-24T08:03:10;13.90;;;7.60;;
36009;SDS011;22076;52.182;5.404;2023-04-24T08:05:37;17.88;;;7.32;;
36009;SDS011;22076;52.182;5.404;2023-04-24T08:08:04;18.52;;;8.65;;
36009;SDS011;22076;52.182;5.404;2023-04-24T08:10:30;18.10;;;6.88;;
36009;SDS011;22076;52.182;5.404;2023-04-24T08:12:57;12.07;;;5.88;;
36009;SDS011;22076;52.182;5.404;2023-04-24T08:15:25;16.35;;;6.32;;
36009;SDS011;22076;52.182;5.404;2023-04-24T08:17:51;15.68;;;6.05;;
36009;SDS011;22076;52.182;5.404;2023-04-24T08:20:18;16.20;;;6.32;;
36009;SDS011;22076;52.182;5.404;2023-04-24T08:22:44;16.00;;;5.85;;
36009;SDS011;22076;52.182;5.404;2023-04-24T08:25:12;15.75;;;5.70;;
36009;SDS011;22076;52.182;5.404;2023-04-24T08:27:39;12.77;;;5.20;;
36009;SDS011;22076;52.182;5.404;2023-04-24T08:30:06;18.63;;;5.72;;
36009;SDS011;22076;52.182;5.404;2023-04-24T08:32:35;15.63;;;5.88;;
36009;SDS011;22076;52.182;5.404;2023-04-24T08:35:02;10.07;;;4.38;;
36009;SDS011;22076;52.182;5.404;2023-04-24T08:37:29;12.00;;;4.45;;
36009;SDS011;22076;52.182;5.404;2023-04-24T08:39:55;15.27;;;4.10;;
36009;SDS011;22076;52.182;5.404;2023-04-24T08:42:23;14.48;;;4.13;;
36009;SDS011;22076;52.182;5.404;2023-04-24T08:44:49;12.80;;;4.80;;
36009;SDS011;22076;52.182;5.404;2023-04-24T08:47:16;12.15;;;5.13;;
36009;SDS011;22076;52.182;5.404;2023-04-24T08:49:44;24.90;;;5.05;;
36009;SDS011;22076;52.182;5.404;2023-04-24T08:52:13;15.20;;;4.63;;
36009;SDS011;22076;52.182;5.404;2023-04-24T08:54:40;14.32;;;5.20;;
36009;SDS011;22076;52.182;5.404;2023-04-24T08:57:08;14.43;;;4.38;;
36009;SDS011;22076;52.182;5.404;2023-04-24T08:59:36;13.55;;;3.58;;
36009;SDS011;22076;52.182;5.404;2023-04-24T09:02:04;10.35;;;4.40;;
36009;SDS011;22076;52.182;5.404;2023-04-24T09:04:30;20.45;;;4.10;;
36009;SDS011;22076;52.182;5.404;2023-04-24T09:06:59;12.38;;;3.60;;
36009;SDS011;22076;52.182;5.404;2023-04-24T09:09:26;15.00;;;3.55;;
36009;SDS011;22076;52.182;5.404;2023-04-24T09:11:54;12.73;;;3.47;;
36009;SDS011;22076;52.182;5.404;2023-04-24T09:14:22;14.90;;;3.28;;
36009;SDS011;22076;52.182;5.404;2023-04-24T09:16:49;13.30;;;2.60;;
36009;SDS011;22076;52.182;5.404;2023-04-24T09:19:16;12.45;;;3.42;;
36009;SDS011;22076;52.182;5.404;2023-04-24T09:21:45;12.15;;;3.78;;
36009;SDS011;22076;52.182;5.404;2023-04-24T09:24:17;18.25;;;4.00;;
36009;SDS011;22076;52.182;5.404;2023-04-24T09:26:46;13.45;;;3.78;;
36009;SDS011;22076;52.182;5.404;2023-04-24T09:29:16;10.63;;;3.38;;
36009;SDS011;22076;52.182;5.404;2023-04-24T09:31:43;5.50;;;2.15;;
36009;SDS011;22076;52.182;5.404;2023-04-24T09:34:10;12.07;;;2.80;;
36009;SDS011;22076;52.182;5.404;2023-04-24T09:36:36;9.30;;;2.85;;
36009;SDS011;22076;52.182;5.404;2023-04-24T09:39:04;12.88;;;2.70;;
36009;SDS011;22076;52.182;5.404;2023-04-24T09:41:34;9.45;;;3.03;;
36009;SDS011;22076;52.182;5.404;2023-04-24T09:44:10;10.07;;;3.70;;
36009;SDS011;22076;52.182;5.404;2023-04-24T09:46:38;10.77;;;3.05;;
36009;SDS011;22076;52.182;5.404;2023-04-24T09:49:07;11.40;;;2.83;;
36009;SDS011;22076;52.182;5.404;2023-04-24T09:51:36;13.75;;;3.03;;
36009;SDS011;22076;52.182;5.404;2023-04-24T09:54:04;10.30;;;3.30;;
36009;SDS011;22076;52.182;5.404;2023-04-24T09:56:32;8.43;;;3.15;;
36009;SDS011;22076;52.182;5.404;2023-04-24T09:59:05;13.32;;;3.97;;
36009;SDS011;22076;52.182;5.404;2023-04-24T10:01:32;14.63;;;3.60;;
36009;SDS011;22076;52.182;5.404;2023-04-24T10:03:59;13.27;;;2.95;;
36009;SDS011;22076;52.182;5.404;2023-04-24T10:06:29;9.52;;;3.38;;
36009;SDS011;22076;52.182;5.404;2023-04-24T10:08:58;9.95;;;2.90;;
36009;SDS011;22076;52.182;5.404;2023-04-24T10:11:26;17.30;;;3.35;;
36009;SDS011;22076;52.182;5.404;2023-04-24T10:13:52;11.38;;;3.22;;
36009;SDS011;22076;52.182;5.404;2023-04-24T10:16:22;12.27;;;3.08;;
36009;SDS011;22076;52.182;5.404;2023-04-24T10:18:49;7.47;;;2.80;;
36009;SDS011;22076;52.182;5.404;2023-04-24T10:21:17;6.75;;;2.95;;
36009;SDS011;22076;52.182;5.404;2023-04-24T10:23:44;15.05;;;2.78;;
36009;SDS011;22076;52.182;5.404;2023-04-24T10:26:12;9.30;;;2.20;;
36009;SDS011;22076;52.182;5.404;2023-04-24T10:28:42;2.63;;;1.42;;
36009;SDS011;22076;52.182;5.404;2023-04-24T10:31:10;4.85;;;1.50;;
36009;SDS011;22076;52.182;5.404;2023-04-24T10:33:38;5.63;;;1.83;;
36009;SDS011;22076;52.182;5.404;2023-04-24T10:36:06;7.93;;;2.22;;
36009;SDS011;22076;52.182;5.404;2023-04-24T10:38:33;3.15;;;1.80;;
36009;SDS011;22076;52.182;5.404;2023-04-24T10:41:07;6.40;;;2.05;;
36009;SDS011;22076;52.182;5.404;2023-04-24T10:43:39;15.15;;;2.03;;
36009;SDS011;22076;52.182;5.404;2023-04-24T10:46:06;5.50;;;1.40;;
36009;SDS011;22076;52.182;5.404;2023-04-24T10:48:35;4.13;;;1.52;;
36009;SDS011;22076;52.182;5.404;2023-04-24T10:51:03;6.75;;;1.90;;
36009;SDS011;22076;52.182;5.404;2023-04-24T10:53:30;9.20;;;1.60;;
36009;SDS011;22076;52.182;5.404;2023-04-24T10:55:58;8.23;;;2.35;;
36009;SDS011;22076;52.182;5.404;2023-04-24T10:58:36;5.97;;;1.63;;
36009;SDS011;22076;52.182;5.404;2023-04-24T11:01:05;5.07;;;1.50;;
36009;SDS011;22076;52.182;5.404;2023-04-24T11:03:32;4.63;;;1.13;;
36009;SDS011;22076;52.182;5.404;2023-04-24T11:06:01;6.40;;;1.77;;
36009;SDS011;22076;52.182;5.404;2023-04-24T11:08:31;6.40;;;1.75;;
36009;SDS011;22076;52.182;5.404;2023-04-24T11:11:08;5.63;;;1.73;;
36009;SDS011;22076;52.182;5.404;2023-04-24T11:16:30;7.85;;;1.60;;
36009;SDS011;22076;52.182;5.404;2023-04-24T11:19:02;5.50;;;1.45;;
36009;SDS011;22076;52.182;5.404;2023-04-24T11:21:42;9.55;;;1.67;;
36009;SDS011;22076;52.182;5.404;2023-04-24T11:24:26;6.00;;;1.55;;
36009;SDS011;22076;52.182;5.404;2023-04-24T11:26:55;7.72;;;1.70;;
36009;SDS011;22076;52.182;5.404;2023-04-24T11:29:23;2.45;;;1.30;;
36009;SDS011;22076;52.182;5.404;2023-04-24T11:31:52;6.32;;;1.45;;
36009;SDS011;22076;52.182;5.404;2023-04-24T11:34:20;6.25;;;1.70;;
36009;SDS011;22076;52.182;5.404;2023-04-24T11:36:46;5.63;;;1.70;;
36009;SDS011;22076;52.182;5.404;2023-04-24T11:39:13;6.85;;;1.60;;
36009;SDS011;22076;52.182;5.404;2023-04-24T11:41:41;6.40;;;1.33;;
36009;SDS011;22076;52.182;5.404;2023-04-24T11:44:08;5.57;;;0.98;;
36009;SDS011;22076;52.182;5.404;2023-04-24T11:46:36;7.15;;;1.10;;
36009;SDS011;22076;52.182;5.404;2023-04-24T11:49:05;2.88;;;0.90;;
36009;SDS011;22076;52.182;5.404;2023-04-24T11:51:31;4.15;;;1.00;;
36009;SDS011;22076;52.182;5.404;2023-04-24T11:53:58;3.10;;;0.70;;
36009;SDS011;22076;52.182;5.404;2023-04-24T11:56:25;3.92;;;0.85;;
36009;SDS011;22076;52.182;5.404;2023-04-24T11:58:53;3.78;;;0.93;;
36009;SDS011;22076;52.182;5.404;2023-04-24T12:01:20;1.25;;;0.70;;
36009;SDS011;22076;52.182;5.404;2023-04-24T12:03:47;3.03;;;0.80;;
36009;SDS011;22076;52.182;5.404;2023-04-24T12:06:16;5.80;;;0.90;;
36009;SDS011;22076;52.182;5.404;2023-04-24T12:08:45;2.97;;;0.70;;
36009;SDS011;22076;52.182;5.404;2023-04-24T12:11:14;2.58;;;0.80;;
36009;SDS011;22076;52.182;5.404;2023-04-24T12:13:41;4.63;;;0.90;;
36009;SDS011;22076;52.182;5.404;2023-04-24T12:16:09;3.22;;;1.00;;
36009;SDS011;22076;52.182;5.404;2023-04-24T12:18:40;5.43;;;0.98;;
36009;SDS011;22076;52.182;5.404;2023-04-24T12:21:17;7.18;;;1.33;;
36009;SDS011;22076;52.182;5.404;2023-04-24T12:23:45;2.33;;;1.10;;
36009;SDS011;22076;52.182;5.404;2023-04-24T12:26:12;4.78;;;1.00;;
36009;SDS011;22076;52.182;5.404;2023-04-24T12:28:39;3.72;;;1.33;;
36009;SDS011;22076;52.182;5.404;2023-04-24T12:33:36;9.02;;;1.45;;
36009;SDS011;22076;52.182;5.404;2023-04-24T12:36:03;5.30;;;1.33;;
36009;SDS011;22076;52.182;5.404;2023-04-24T12:38:30;6.57;;;1.95;;
36009;SDS011;22076;52.182;5.404;2023-04-24T12:41:05;7.43;;;1.60;;
36009;SDS011;22076;52.182;5.404;2023-04-24T12:43:33;6.93;;;1.55;;
36009;SDS011;22076;52.182;5.404;2023-04-24T12:45:59;3.97;;;1.20;;
36009;SDS011;22076;52.182;5.404;2023-04-24T12:48:27;5.05;;;1.70;;
36009;SDS011;22076;52.182;5.404;2023-04-24T12:50:56;5.60;;;1.42;;
36009;SDS011;22076;52.182;5.404;2023-04-24T12:53:26;8.95;;;1.75;;
36009;SDS011;22076;52.182;5.404;2023-04-24T12:55:54;7.70;;;1.63;;
36009;SDS011;22076;52.182;5.404;2023-04-24T12:58:21;6.00;;;1.38;;
36009;SDS011;22076;52.182;5.404;2023-04-24T13:00:48;7.97;;;2.08;;
36009;SDS011;22076;52.182;5.404;2023-04-24T13:03:14;10.32;;;1.85;;
36009;SDS011;22076;52.182;5.404;2023-04-24T13:05:43;12.65;;;2.13;;
36009;SDS011;22076;52.182;5.404;2023-04-24T13:08:09;12.15;;;2.45;;
36009;SDS011;22076;52.182;5.404;2023-04-24T13:10:37;15.02;;;2.53;;
36009;SDS011;22076;52.182;5.404;2023-04-24T13:13:05;9.98;;;2.35;;
36009;SDS011;22076;52.182;5.404;2023-04-24T13:15:32;14.95;;;2.58;;
36009;SDS011;22076;52.182;5.404;2023-04-24T13:17:59;13.50;;;2.78;;
36009;SDS011;22076;52.182;5.404;2023-04-24T13:20:26;12.30;;;3.35;;
36009;SDS011;22076;52.182;5.404;2023-04-24T13:22:54;14.82;;;3.05;;
36009;SDS011;22076;52.182;5.404;2023-04-24T13:25:20;19.42;;;3.13;;
36009;SDS011;22076;52.182;5.404;2023-04-24T13:27:49;8.80;;;2.20;;
36009;SDS011;22076;52.182;5.404;2023-04-24T13:30:16;15.45;;;2.17;;
36009;SDS011;22076;52.182;5.404;2023-04-24T13:32:42;13.15;;;2.80;;
36009;SDS011;22076;52.182;5.404;2023-04-24T13:35:09;15.43;;;3.10;;
36009;SDS011;22076;52.182;5.404;2023-04-24T13:37:35;7.13;;;2.10;;
36009;SDS011;22076;52.182;5.404;2023-04-24T13:40:03;15.88;;;3.03;;
36009;SDS011;22076;52.182;5.404;2023-04-24T13:42:32;11.93;;;3.30;;
36009;SDS011;22076;52.182;5.404;2023-04-24T13:44:58;11.60;;;2.33;;
36009;SDS011;22076;52.182;5.404;2023-04-24T13:47:25;13.43;;;2.95;;
36009;SDS011;22076;52.182;5.404;2023-04-24T13:49:51;14.35;;;3.70;;
36009;SDS011;22076;52.182;5.404;2023-04-24T13:52:19;14.05;;;2.95;;
36009;SDS011;22076;52.182;5.404;2023-04-24T13:54:45;11.60;;;3.17;;
36009;SDS011;22076;52.182;5.404;2023-04-24T13:57:14;10.23;;;3.03;;
36009;SDS011;22076;52.182;5.404;2023-04-24T13:59:41;16.65;;;3.75;;
36009;SDS011;22076;52.182;5.404;2023-04-24T14:02:08;12.73;;;2.80;;
36009;SDS011;22076;52.182;5.404;2023-04-24T14:04:38;11.73;;;2.92;;
36009;SDS011;22076;52.182;5.404;2023-04-24T14:07:05;12.93;;;3.30;;
36009;SDS011;22076;52.182;5.404;2023-04-24T14:09:33;11.30;;;3.15;;
36009;SDS011;22076;52.182;5.404;2023-04-24T14:12:07;12.75;;;3.20;;
36009;SDS011;22076;52.182;5.404;2023-04-24T14:14:35;6.93;;;2.65;;
36009;SDS011;22076;52.182;5.404;2023-04-24T14:17:04;15.95;;;3.60;;
36009;SDS011;22076;52.182;5.404;2023-04-24T14:19:31;12.25;;;3.63;;
36009;SDS011;22076;52.182;5.404;2023-04-24T14:22:00;10.30;;;2.92;;
36009;SDS011;22076;52.182;5.404;2023-04-24T14:24:27;13.30;;;3.35;;
36009;SDS011;22076;52.182;5.404;2023-04-24T14:26:54;9.90;;;3.22;;
36009;SDS011;22076;52.182;5.404;2023-04-24T14:29:22;13.93;;;3.28;;
36009;SDS011;22076;52.182;5.404;2023-04-24T14:31:52;13.63;;;3.53;;
36009;SDS011;22076;52.182;5.404;2023-04-24T14:34:18;16.65;;;3.67;;
36009;SDS011;22076;52.182;5.404;2023-04-24T14:36:45;13.75;;;3.88;;
36009;SDS011;22076;52.182;5.404;2023-04-24T14:39:12;13.32;;;3.10;;
36009;SDS011;22076;52.182;5.404;2023-04-24T14:41:38;10.98;;;3.67;;
36009;SDS011;22076;52.182;5.404;2023-04-24T14:44:05;15.15;;;3.88;;
36009;SDS011;22076;52.182;5.404;2023-04-24T14:46:33;12.82;;;3.65;;
36009;SDS011;22076;52.182;5.404;2023-04-24T14:49:01;14.30;;;3.67;;